• Join FlightAware (Why Join?)
  • Login
  • US Flag 
06:11AM EDT


 

Airport Tracker/Info


-or-


 

Live Flight TrackerFlight Track Log ✈ EGF3101 ✈ 09-Jul-2013 ✈ KORD - KTUL

Flight Track Log - Related Links

Times and Time Zones

All times are in EDT time to prevent confusion due to time zone crossing. See the EGF3101 flight status page for this flight to view local times or setup timezone preferences in your user account.

Time Position Orientation Groundspeed Altitude Reporting Facility
EDT Latitude Longitude Course Direction KTS MPH feet Rate Location/Type
08:42AM 41.9333 -87.9167 153° Southeast 165 190 2,100  Level Chicago TRACON
08:43AM 41.8833 -87.9333 194° South 219 252 3,900 1,740 Climbing Chicago TRACON
08:44AM 41.8448 -88.1219 206° Southwest  Level Estimated
08:45AM 41.7762 -88.2291 203° Southwest  Level Estimated
08:45AM 41.8028 -87.9233 175° South 261 300 5,900  Level Chicago Center
08:46AM 41.7075 -88.3361 197° South  Level Estimated
08:46AM 41.7339 -87.9525 198° South 266 306 7,900  Level Chicago Center
08:47AM 41.6136 -88.2722 153° Southeast  Level FlightAware Approximate
08:47AM 41.6650 -88.0017 208° Southwest 282 325 9,700  Level Chicago Center
08:48AM 41.5216 -88.2097 153° Southeast  Level FlightAware Approximate
08:48AM 41.5783 -88.0614 207° Southwest 291 335 11,900  Level Chicago Center
08:49AM 41.5047 -88.1133 208° Southwest 302 348 13,500 1,440 Climbing Chicago Center
08:50AM 41.4275 -88.1650 207° Southwest 321 369 14,900 1,320 Climbing Chicago Center
08:51AM 41.3453 -88.2097 202° Southwest 329 379 16,300 1,500 Climbing Chicago Center
08:52AM 41.2433 -88.2553 199° South 325 374 18,100 1,200 Climbing Chicago Center
08:53AM 41.1531 -88.2942 198° South 340 391 18,900 840 Climbing Chicago Center
08:54AM 41.0594 -88.3358 199° South 355 409 19,900 960 Climbing Chicago Center
08:55AM 40.9633 -88.3794 199° South 365 420 20,900 960 Climbing Chicago Center
08:56AM 40.8647 -88.4233 199° South 375 432 21,900 1,020 Climbing Chicago Center
08:57AM 40.7450 -88.4761 198° South 380 437 23,100 1,020 Climbing Chicago Center
08:58AM 40.6444 -88.5214 199° South 384 442 24,100 960 Climbing Chicago Center
08:59AM 40.5447 -88.5653 198° South 382 440 25,100 960 Climbing Chicago Center
09:00AM 40.4444 -88.6103 199° South 385 443 26,100 960 Climbing Chicago Center
09:01AM 40.3386 -88.6569 199° South 393 452 27,100 960 Climbing Chicago Center
09:02AM 40.2633 -88.7553 225° Southwest 381 438 28,100 1,140 Climbing Chicago Center
09:03AM 40.2008 -88.8644 233° Southwest 373 429 29,500 1,320 Climbing Chicago Center
09:04AM 40.1242 -88.9925 232° Southwest 371 427 30,900 1,140 Climbing Chicago Center
09:05AM 40.0594 -89.0983 231° Southwest 371 427 31,900 900 Climbing Chicago Center
09:06AM 40.0061 -89.1869 232° Southwest 376 433 32,700 900 Climbing Kansas City Center
09:07AM 39.9400 -89.2972 232° Southwest 381 438 33,700 960 Climbing Kansas City Center
09:08AM 39.8731 -89.4064 231° Southwest 384 442 34,700 840 Climbing Kansas City Center
09:09AM 39.7928 -89.5403 232° Southwest 388 447 35,500 540 Climbing Kansas City Center
09:10AM 39.7219 -89.6569 232° Southwest 401 461 35,900 240 Climbing Kansas City Center
09:11AM 39.6467 -89.7797 231° Southwest 420 483 36,000  Climbing Kansas City Center
09:12AM 39.5708 -89.9064 232° Southwest 433 498 36,000  Level Kansas City Center
09:13AM 39.4939 -90.0344 232° Southwest 443 510 36,000  Level Kansas City Center
09:14AM 39.4161 -90.1611 232° Southwest 448 516 36,000  Level Kansas City Center
09:15AM 39.3208 -90.3142 231° Southwest 455 524 36,000  Level Kansas City Center
09:16AM 39.2439 -90.4400 232° Southwest 451 519 36,000  Level Kansas City Center
09:17AM 39.1653 -90.5644 231° Southwest 450 518 36,000  Level Kansas City Center
09:18AM 39.0892 -90.6872 231° Southwest 445 512 36,000  Level Kansas City Center
09:19AM 39.0128 -90.8097 231° Southwest 443 510 36,000 -60 Level Kansas City Center
09:20AM 38.9192 -90.9583 231° Southwest 448 516 35,900  Descending Kansas City Center
09:22AM 38.8525 -91.0922 237° Southwest 447 514 36,000  Climbing Kansas City Center
09:23AM 38.7878 -91.2264 238° Southwest 447 514 36,000  Level Kansas City Center
09:24AM 38.7175 -91.3633 237° Southwest 452 520 36,000  Level Kansas City Center
09:25AM 38.6508 -91.4944 237° Southwest 448 516 36,000  Level Kansas City Center
09:26AM 38.5686 -91.6550 237° Southwest 448 516 36,000  Level Kansas City Center
09:27AM 38.5008 -91.7892 237° Southwest 449 517 36,000  Level Kansas City Center
09:28AM 38.4322 -91.9253 237° Southwest 452 520 36,000  Level Kansas City Center
09:29AM 38.3642 -92.0592 237° Southwest 452 520 36,000  Level Kansas City Center
09:30AM 38.2961 -92.1928 237° Southwest 451 519 36,000  Level Kansas City Center
09:31AM 38.2144 -92.3533 237° Southwest 453 521 36,000  Level Kansas City Center
09:32AM 38.1425 -92.4903 236° Southwest 472 543 36,000 -60 Level Kansas City Center
09:33AM 38.0744 -92.6233 237° Southwest 458 527 35,900  Descending Kansas City Center
09:34AM 38.0061 -92.7525 236° Southwest 455 524 36,000  Climbing Kansas City Center
09:35AM 37.9358 -92.8842 236° Southwest 453 521 36,000  Level Kansas City Center
09:36AM 37.8511 -93.0436 236° Southwest 455 524 36,000 -240 Level Kansas City Center
09:37AM 37.7825 -93.1761 237° Southwest 452 520 35,600 -720 Descending Kansas City Center
09:38AM 37.7111 -93.3100 236° Southwest 456 525 34,600 -1,020 Descending Kansas City Center
09:39AM 37.6386 -93.4450 236° Southwest 462 532 33,600 -1,020 Descending Kansas City Center
09:40AM 37.5653 -93.5786 235° Southwest 463 533 32,600 -840 Descending Kansas City Center
09:41AM 37.4936 -93.7144 236° Southwest 464 534 31,900 -300 Descending Kansas City Center
09:42AM 37.4078 -93.8731 236° Southwest 458 527 32,000  Climbing Kansas City Center
09:43AM 37.3369 -94.0069 236° Southwest 459 528 32,000  Level Kansas City Center
09:44AM 37.2622 -94.1439 236° Southwest 460 529 32,000  Level Kansas City Center
09:45AM 37.1894 -94.2783 236° Southwest 464 534 32,000 -420 Level Kansas City Center
09:46AM 37.1167 -94.4122 236° Southwest 465 535 31,200 -1,860 Descending Kansas City Center
09:47AM 37.0444 -94.5469 236° Southwest 465 535 28,200 -2,880 Descending Kansas City Center
09:48AM 36.9711 -94.6767 235° Southwest 459 528 25,300 -2,880 Descending Kansas City Center
09:49AM 36.8969 -94.8067 235° Southwest 461 531 22,200 -3,300 Descending Kansas City Center
09:50AM 36.8156 -94.9567 236° Southwest 446 513 18,600 -3,000 Descending Kansas City Center
09:52AM 36.7511 -95.0717 235° Southwest 425 489 16,100 -2,520 Descending Kansas City Center
09:52AM 36.7161 -95.1328 234° Southwest 392 451 14,700 -2,460 Descending Kansas City Center
09:53AM 36.6892 -95.1825 236° Southwest 400 460 13,600 -2,280 Descending Kansas City Center
09:54AM 36.6222 -95.2864 231° Southwest 389 448 11,200 -1,740 Descending Kansas City Center
09:55AM 36.5675 -95.3922 237° Southwest 372 428 10,100 -600 Descending Kansas City Center
09:56AM 36.5011 -95.5169 237° Southwest 368 423 10,000 -120 Descending Kansas City Center
09:57AM 36.4381 -95.6369 237° Southwest 320 368 9,900 -1,260 Descending Kansas City Center
09:58AM 36.4044 -95.6958 235° Southwest 287 330 7,500 -2,880 Descending Kansas City Center